Maersk Magellan — 9V6751 — position and weather

sailwx.info

Track history (hours):
 
Tides and Currents Weather Stations Pressure Air Temp Water Temp Dewpoint Dewpoint Depression Visibility Wind Speed Wind Dir Waves Ship Positions

Maersk Magellan

Last reported at 2016-Jul-22 06:05 UTC. Time now 2016-Jul-27 07:51 UTC.
Position N 36°01' W 027°28'.

Length 183 m; draft 10.3 m.

Type: Ship (hazmat cat A). MMSI: 566549000.

Date/timePositionNaut miles runAvg speedWind from/ knotsBaromVisibWave heightAir tempDewpointWater temp
2016-Jul-22 06:05N 36°01' W 027°28'7313.1
2016-Jul-22 00:29N 35°59' W 025°58'1213.4
2016-Jul-21 23:33N 35°59' W 025°42'1313.4
2016-Jul-21 22:33N 35°58' W 025°26'1313.4
2016-Jul-21 21:33N 35°58' W 025°09'1313.2
2016-Jul-21 20:33N 35°58' W 024°53'1313.4
2016-Jul-21 19:33N 35°58' W 024°36'1313.4
2016-Jul-21 18:33N 35°58' W 024°20'1313.3
2016-Jul-21 17:33N 35°58' W 024°03'1513.2
2016-Jul-21 16:24N 35°58' W 023°45'5413.1
2016-Jul-21 12:17N 35°57' W 022°38'1212.4
2016-Jul-21 11:20N 35°57' W 022°24'1012.5
2016-Jul-21 10:33N 35°57' W 022°12'  
2016-Jul-19 04:26N 35°59' W 007°22'2614.1
2016-Jul-19 02:33N 36°01' W 006°49'4814.3
2016-Jul-18 23:12N 35°58' W 005°50'1014.3
2016-Jul-18 22:32N 35°58' W 005°38'1313.0
2016-Jul-18 21:33N 36°03' W 005°24'6 0.2
2016-Jul-17 03:33N 36°10' W 005°25'1 0.6
2016-Jul-17 02:31N 36°09' W 005°25'0 0.0
2016-Jul-17 01:31N 36°09' W 005°25'0 0.0
2016-Jul-17 00:31N 36°09' W 005°25'0 0.0
2016-Jul-16 23:31N 36°09' W 005°25'0 0.0
2016-Jul-16 22:31N 36°09' W 005°25'0 0.0
2016-Jul-16 21:34N 36°09' W 005°25'1 1.4
2016-Jul-16 20:34N 36°08' W 005°25'5 5.3
2016-Jul-16 19:33N 36°05' W 005°19'5 5.2
2016-Jul-16 18:33N 36°06' W 005°13'11 3.4
2016-Jul-16 15:15N 36°01' W 005°01'1 0.9
2016-Jul-16 14:33N 35°60' W 005°01'1 1.1
2016-Jul-16 13:19N 36°01' W 005°02'4 0.3
2016-Jul-16 00:26N 36°04' W 005°06'6 0.6
2016-Jul-15 14:13N 36°09' W 005°10'3 3.7
2016-Jul-15 13:26N 36°07' W 005°13'9 9.9
2016-Jul-15 12:33N 35°60' W 005°18'14513.0
2016-Jul-15 01:24N 36°19' W 008°16'1315.1
2016-Jul-15 00:33N 36°23' W 008°31'1515.3
2016-Jul-14 23:33N 36°27' W 008°49'1515.2
2016-Jul-14 22:33N 36°31' W 009°08'1515.1
2016-Jul-14 21:33N 36°39' W 009°24'1515.2
2016-Jul-14 20:33N 36°52' W 009°35'1615.7
2016-Jul-14 19:33N 37°07' W 009°39'1514.8
2016-Jul-14 18:33N 37°18' W 009°51'1515.2
2016-Jul-14 17:33N 37°27' W 010°07'1515.3
2016-Jul-14 16:33N 37°36' W 010°23'1515.2
2016-Jul-14 15:33N 37°44' W 010°38'1514.9
2016-Jul-14 14:33N 37°52' W 010°54'1515.2
2016-Jul-14 13:33N 38°01' W 011°11'1514.9
2016-Jul-14 12:33N 38°09' W 011°26'1515.1
2016-Jul-14 11:32N 38°17' W 011°42'1414.8
2016-Jul-14 10:33N 38°25' W 011°58'1814.8
2016-Jul-14 09:20N 38°36' W 012°17'1214.8
2016-Jul-14 08:33N 38°42' W 012°29'1515.1
2016-Jul-14 07:33N 38°51' W 012°45'1615.0
2016-Jul-14 06:29N 38°59' W 013°02'10714.9
2016-Jul-13 23:19N 39°54' W 015°01'4315.3
2016-Jul-13 20:32N 40°16' W 015°49'  
Track history (hours):
 
Tides and Currents Weather Stations Pressure Air Temp Water Temp Dewpoint Dewpoint Depression Visibility Wind Speed Wind Dir Waves Ship Positions

Maersk Magellan

Last reported at 2016-Jul-22 06:05 UTC. Time now 2016-Jul-27 07:51 UTC.
Position N 36°01' W 027°28'.

Length 183 m; draft 10.3 m.

Type: Ship (hazmat cat A). MMSI: 566549000.

Date/timePositionNaut miles runAvg speedWind from/ knotsBaromVisibWave heightAir tempDewpointWater temp
2016-Jul-22 06:05N 36°01' W 027°28'7313.1
2016-Jul-22 00:29N 35°59' W 025°58'1213.4
2016-Jul-21 23:33N 35°59' W 025°42'1313.4
2016-Jul-21 22:33N 35°58' W 025°26'1313.4
2016-Jul-21 21:33N 35°58' W 025°09'1313.2
2016-Jul-21 20:33N 35°58' W 024°53'1313.4
2016-Jul-21 19:33N 35°58' W 024°36'1313.4
2016-Jul-21 18:33N 35°58' W 024°20'1313.3
2016-Jul-21 17:33N 35°58' W 024°03'1513.2
2016-Jul-21 16:24N 35°58' W 023°45'5413.1
2016-Jul-21 12:17N 35°57' W 022°38'1212.4
2016-Jul-21 11:20N 35°57' W 022°24'1012.5
2016-Jul-21 10:33N 35°57' W 022°12'  
2016-Jul-19 04:26N 35°59' W 007°22'2614.1
2016-Jul-19 02:33N 36°01' W 006°49'4814.3
2016-Jul-18 23:12N 35°58' W 005°50'1014.3
2016-Jul-18 22:32N 35°58' W 005°38'1313.0
2016-Jul-18 21:33N 36°03' W 005°24'6 0.2
2016-Jul-17 03:33N 36°10' W 005°25'1 0.6
2016-Jul-17 02:31N 36°09' W 005°25'0 0.0
2016-Jul-17 01:31N 36°09' W 005°25'0 0.0
2016-Jul-17 00:31N 36°09' W 005°25'0 0.0
2016-Jul-16 23:31N 36°09' W 005°25'0 0.0
2016-Jul-16 22:31N 36°09' W 005°25'0 0.0
2016-Jul-16 21:34N 36°09' W 005°25'1 1.4
2016-Jul-16 20:34N 36°08' W 005°25'5 5.3
2016-Jul-16 19:33N 36°05' W 005°19'5 5.2
2016-Jul-16 18:33N 36°06' W 005°13'11 3.4
2016-Jul-16 15:15N 36°01' W 005°01'1 0.9
2016-Jul-16 14:33N 35°60' W 005°01'1 1.1
2016-Jul-16 13:19N 36°01' W 005°02'4 0.3
2016-Jul-16 00:26N 36°04' W 005°06'6 0.6
2016-Jul-15 14:13N 36°09' W 005°10'3 3.7
2016-Jul-15 13:26N 36°07' W 005°13'9 9.9
2016-Jul-15 12:33N 35°60' W 005°18'14513.0
2016-Jul-15 01:24N 36°19' W 008°16'1315.1
2016-Jul-15 00:33N 36°23' W 008°31'1515.3
2016-Jul-14 23:33N 36°27' W 008°49'1515.2
2016-Jul-14 22:33N 36°31' W 009°08'1515.1
2016-Jul-14 21:33N 36°39' W 009°24'1515.2
2016-Jul-14 20:33N 36°52' W 009°35'1615.7
2016-Jul-14 19:33N 37°07' W 009°39'1514.8
2016-Jul-14 18:33N 37°18' W 009°51'1515.2
2016-Jul-14 17:33N 37°27' W 010°07'1515.3
2016-Jul-14 16:33N 37°36' W 010°23'1515.2
2016-Jul-14 15:33N 37°44' W 010°38'1514.9
2016-Jul-14 14:33N 37°52' W 010°54'1515.2
2016-Jul-14 13:33N 38°01' W 011°11'1514.9
2016-Jul-14 12:33N 38°09' W 011°26'1515.1
2016-Jul-14 11:32N 38°17' W 011°42'1414.8
2016-Jul-14 10:33N 38°25' W 011°58'1814.8
2016-Jul-14 09:20N 38°36' W 012°17'1214.8
2016-Jul-14 08:33N 38°42' W 012°29'1515.1
2016-Jul-14 07:33N 38°51' W 012°45'1615.0
2016-Jul-14 06:29N 38°59' W 013°02'10714.9
2016-Jul-13 23:19N 39°54' W 015°01'4315.3
2016-Jul-13 20:32N 40°16' W 015°49'  

Dump ship's entire track history